createdAt,value
2018-10-06T00:01:27.626Z,18.57
2018-10-06T00:11:28.883Z,17.53
2018-10-06T00:21:30.294Z,17.17
2018-10-06T00:31:31.567Z,18.20
2018-10-06T00:41:33.598Z,18.67
2018-10-06T00:51:34.891Z,19.73
2018-10-06T01:01:36.234Z,18.53
2018-10-06T01:11:37.544Z,19.87
2018-10-06T01:21:38.812Z,20.43
2018-10-06T01:31:40.121Z,21.30
2018-10-06T01:41:41.522Z,19.63
2018-10-06T01:51:42.760Z,18.03
2018-10-06T02:01:45.875Z,20.00
2018-10-06T02:11:47.172Z,20.53
2018-10-06T02:21:48.454Z,19.33
2018-10-06T02:31:49.767Z,18.40
2018-10-06T02:41:51.948Z,19.30
2018-10-06T02:51:54.276Z,19.30
2018-10-06T03:01:56.507Z,18.93
2018-10-06T03:11:57.782Z,20.93
2018-10-06T03:21:59.071Z,19.57
2018-10-06T03:32:00.577Z,19.50
2018-10-06T03:42:03.883Z,19.70
2018-10-06T03:52:06.017Z,20.93
2018-10-06T04:02:07.288Z,23.60
2018-10-06T04:12:08.547Z,21.67
2018-10-06T04:22:09.797Z,22.20
2018-10-06T04:32:12.265Z,20.63
2018-10-06T04:42:13.606Z,21.43
2018-10-06T04:52:15.648Z,20.33
2018-10-06T05:02:16.959Z,26.07
2018-10-06T05:12:18.422Z,22.67
2018-10-06T05:22:20.461Z,25.63
2018-10-06T05:32:21.896Z,22.37
2018-10-06T05:42:23.192Z,22.20
2018-10-06T05:52:24.462Z,21.43
2018-10-06T06:02:25.718Z,21.30
2018-10-06T06:12:26.996Z,23.97
2018-10-06T06:22:28.294Z,23.47
2018-10-06T06:32:29.580Z,21.90
2018-10-06T06:42:31.560Z,19.33
2018-10-06T06:52:33.013Z,18.93
2018-10-06T07:02:34.291Z,16.83
2018-10-06T07:22:42.247Z,16.40
2018-10-06T07:32:44.268Z,17.23
2018-10-06T07:42:45.502Z,15.87
2018-10-06T07:52:46.727Z,15.80
2018-10-06T08:02:48.733Z,14.10
2018-10-06T08:12:50.053Z,13.27
2018-10-06T08:22:51.358Z,13.37
2018-10-06T08:32:52.779Z,11.83
2018-10-06T08:42:54.961Z,12.30
2018-10-06T08:52:56.131Z,11.17
2018-10-06T09:02:57.386Z,10.30
2018-10-06T09:12:59.470Z,9.48
2018-10-06T09:23:00.885Z,8.40
2018-10-06T09:33:02.134Z,8.77
2018-10-06T09:43:03.391Z,8.15
2018-10-06T09:53:05.404Z,9.65
2018-10-06T10:03:07.410Z,9.77
2018-10-06T10:13:12.305Z,9.23
2018-10-06T10:23:14.343Z,9.23
2018-10-06T10:33:15.619Z,13.97
2018-10-06T10:43:16.898Z,12.70
2018-10-06T10:53:18.988Z,8.37
2018-10-06T11:03:20.331Z,8.50
2018-10-06T11:13:21.600Z,8.03
2018-10-06T11:23:22.856Z,9.17
2018-10-06T11:33:24.097Z,8.57
2018-10-06T11:43:26.130Z,10.37
2018-10-06T11:53:27.385Z,11.50
2018-10-06T12:03:28.621Z,8.73
2018-10-06T12:13:29.890Z,8.43
2018-10-06T12:23:31.158Z,9.03
2018-10-06T12:33:32.484Z,8.70
2018-10-06T12:43:34.529Z,9.10
2018-10-06T12:53:35.953Z,8.83
2018-10-06T13:03:37.218Z,8.43
2018-10-06T13:13:38.468Z,9.43
2018-10-06T13:23:39.751Z,9.50
2018-10-06T13:33:41.154Z,7.67
2018-10-06T13:43:42.390Z,8.13
2018-10-06T13:53:43.657Z,8.30
2018-10-06T14:03:44.984Z,8.03
2018-10-06T14:13:46.252Z,8.43
2018-10-06T14:23:47.564Z,8.00
2018-10-06T14:33:48.839Z,7.67
2018-10-06T14:43:50.102Z,7.83
2018-10-06T14:53:51.846Z,8.07
2018-10-06T15:03:53.102Z,8.40
2018-10-06T15:13:54.373Z,9.10
2018-10-06T15:23:55.695Z,9.00
2018-10-06T15:33:56.933Z,8.10
2018-10-06T15:43:58.191Z,8.43
2018-10-06T15:53:59.606Z,8.90
2018-10-06T16:04:00.875Z,8.07
2018-10-06T16:14:02.197Z,8.40
2018-10-06T16:24:03.533Z,8.03
2018-10-06T16:34:04.990Z,10.63
2018-10-06T16:44:06.301Z,11.87
2018-10-06T16:54:08.553Z,13.70
2018-10-06T17:04:10.584Z,14.20
2018-10-06T17:14:11.861Z,16.50
2018-10-06T17:24:13.988Z,16.23
2018-10-06T17:34:15.208Z,16.70
2018-10-06T17:44:16.503Z,15.83
2018-10-06T17:54:18.126Z,16.33
2018-10-06T18:04:19.427Z,18.33
2018-10-06T18:14:20.751Z,17.60
2018-10-06T18:24:24.912Z,17.10
2018-10-06T18:34:27.279Z,16.70
2018-10-06T18:44:28.852Z,17.13
2018-10-06T18:54:30.155Z,17.70
2018-10-06T19:04:31.425Z,16.00
2018-10-06T19:14:32.683Z,15.53
2018-10-06T19:24:33.925Z,14.97
2018-10-06T19:34:35.316Z,16.83
2018-10-06T19:44:37.369Z,15.33
2018-10-06T19:54:38.667Z,16.77
2018-10-06T20:04:39.982Z,16.77
2018-10-06T20:14:41.246Z,15.97
2018-10-06T20:24:42.520Z,15.67
2018-10-06T20:34:49.838Z,17.17
2018-10-06T20:44:51.088Z,18.37
2018-10-06T20:54:52.385Z,20.83
2018-10-06T21:04:53.792Z,18.27
2018-10-06T21:14:55.050Z,21.33
2018-10-06T21:24:57.098Z,21.10
2018-10-06T21:34:59.411Z,21.03
2018-10-06T21:45:00.682Z,19.67
2018-10-06T21:55:02.794Z,20.53
2018-10-06T22:05:04.067Z,27.93
2018-10-06T22:15:05.420Z,20.93
2018-10-06T22:25:07.777Z,20.93
2018-10-06T22:35:09.095Z,21.17
2018-10-06T22:45:11.240Z,21.43
2018-10-06T22:55:12.523Z,19.87
2018-10-06T23:05:13.815Z,21.30
2018-10-06T23:15:15.086Z,19.63
2018-10-06T23:25:16.497Z,21.33
2018-10-06T23:35:18.519Z,23.83
2018-10-06T23:45:20.531Z,24.97
2018-10-06T23:55:22.551Z,22.93
